sensor_id;sensor_type;location;lat;lon;timestamp;pressure;altitude;pressure_sealevel;temperature;humidity
27304;BME280;14791;52.392;13.092;2023-03-23T00:00:04;100175.36;;;18.68;39.07
27304;BME280;14791;52.392;13.092;2023-03-23T00:02:35;100173.97;;;18.64;39.11
27304;BME280;14791;52.392;13.092;2023-03-23T00:05:06;100162.47;;;18.62;39.13
27304;BME280;14791;52.392;13.092;2023-03-23T00:07:35;100163.78;;;18.58;39.16
27304;BME280;14791;52.392;13.092;2023-03-23T00:10:05;100162.25;;;18.55;39.19
27304;BME280;14791;52.392;13.092;2023-03-23T00:12:34;100162.07;;;18.53;39.24
27304;BME280;14791;52.392;13.092;2023-03-23T00:15:05;100161.89;;;18.50;39.30
27304;BME280;14791;52.392;13.092;2023-03-23T00:17:35;100168.47;;;18.47;39.30
27304;BME280;14791;52.392;13.092;2023-03-23T00:20:05;100173.36;;;18.44;39.34
27304;BME280;14791;52.392;13.092;2023-03-23T00:22:34;100165.39;;;18.42;39.40
27304;BME280;14791;52.392;13.092;2023-03-23T00:25:06;100150.86;;;18.39;39.43
27304;BME280;14791;52.392;13.092;2023-03-23T00:27:36;100149.47;;;18.35;39.49
27304;BME280;14791;52.392;13.092;2023-03-23T00:30:06;100152.13;;;18.31;39.52
27304;BME280;14791;52.392;13.092;2023-03-23T00:32:37;100152.45;;;18.28;39.56
27304;BME280;14791;52.392;13.092;2023-03-23T00:35:06;100139.27;;;18.25;39.62
27304;BME280;14791;52.392;13.092;2023-03-23T00:37:36;100134.16;;;18.22;39.63
27304;BME280;14791;52.392;13.092;2023-03-23T00:40:06;100126.74;;;18.20;39.70
27304;BME280;14791;52.392;13.092;2023-03-23T00:42:37;100124.33;;;18.17;39.72
27304;BME280;14791;52.392;13.092;2023-03-23T00:45:07;100134.12;;;18.14;39.72
27304;BME280;14791;52.392;13.092;2023-03-23T00:47:38;100130.39;;;18.11;39.77
27304;BME280;14791;52.392;13.092;2023-03-23T00:50:09;100120.89;;;18.06;39.81
27304;BME280;14791;52.392;13.092;2023-03-23T00:52:40;100118.66;;;18.02;39.84
27304;BME280;14791;52.392;13.092;2023-03-23T00:55:09;100103.28;;;17.98;39.87
27304;BME280;14791;52.392;13.092;2023-03-23T00:57:38;100112.70;;;17.94;39.89
27304;BME280;14791;52.392;13.092;2023-03-23T01:00:08;100111.31;;;17.90;39.90
27304;BME280;14791;52.392;13.092;2023-03-23T01:02:38;100111.63;;;17.87;39.95
27304;BME280;14791;52.392;13.092;2023-03-23T01:05:08;100102.50;;;17.84;40.02
27304;BME280;14791;52.392;13.092;2023-03-23T01:07:38;100098.73;;;17.81;40.08
27304;BME280;14791;52.392;13.092;2023-03-23T01:10:09;100096.33;;;17.78;40.13
27304;BME280;14791;52.392;13.092;2023-03-23T01:12:40;100093.95;;;17.75;40.16
27304;BME280;14791;52.392;13.092;2023-03-23T01:15:12;100088.84;;;17.72;40.17
27304;BME280;14791;52.392;13.092;2023-03-23T01:17:41;100101.68;;;17.70;40.21
27304;BME280;14791;52.392;13.092;2023-03-23T01:20:12;100091.16;;;17.67;40.27
27304;BME280;14791;52.392;13.092;2023-03-23T01:22:42;100087.95;;;17.63;40.32
27304;BME280;14791;52.392;13.092;2023-03-23T01:25:12;100084.55;;;17.61;40.32
27304;BME280;14791;52.392;13.092;2023-03-23T01:27:42;100081.30;;;17.57;40.35
27304;BME280;14791;52.392;13.092;2023-03-23T01:30:12;100084.31;;;17.54;40.40
27304;BME280;14791;52.392;13.092;2023-03-23T01:32:41;100082.92;;;17.50;40.47
27304;BME280;14791;52.392;13.092;2023-03-23T01:35:12;100080.39;;;17.49;40.50
27304;BME280;14791;52.392;13.092;2023-03-23T01:37:41;100085.94;;;17.47;40.52
27304;BME280;14791;52.392;13.092;2023-03-23T01:40:11;100086.95;;;17.46;40.57
27304;BME280;14791;52.392;13.092;2023-03-23T01:42:40;100088.11;;;17.43;40.63
27304;BME280;14791;52.392;13.092;2023-03-23T01:45:23;100086.77;;;17.43;40.71
27304;BME280;14791;52.392;13.092;2023-03-23T01:47:57;100066.85;;;17.44;40.74
27304;BME280;14791;52.392;13.092;2023-03-23T01:50:28;100071.08;;;17.43;40.78
27304;BME280;14791;52.392;13.092;2023-03-23T01:52:59;100069.73;;;17.43;40.77
27304;BME280;14791;52.392;13.092;2023-03-23T01:55:31;100069.91;;;17.46;40.79
27304;BME280;14791;52.392;13.092;2023-03-23T01:58:00;100066.20;;;17.47;40.77
27304;BME280;14791;52.392;13.092;2023-03-23T02:00:29;100064.20;;;17.49;40.79
27304;BME280;14791;52.392;13.092;2023-03-23T02:03:00;100064.02;;;17.50;40.81
27304;BME280;14791;52.392;13.092;2023-03-23T02:05:34;100059.83;;;17.52;40.81
27304;BME280;14791;52.392;13.092;2023-03-23T02:08:07;100054.62;;;17.54;40.80
27304;BME280;14791;52.392;13.092;2023-03-23T02:10:37;100061.22;;;17.56;40.80
27304;BME280;14791;52.392;13.092;2023-03-23T02:13:08;100056.99;;;17.57;40.77
27304;BME280;14791;52.392;13.092;2023-03-23T02:15:50;100057.69;;;17.59;40.78
27304;BME280;14791;52.392;13.092;2023-03-23T02:21:11;100061.78;;;17.63;40.77
27304;BME280;14791;52.392;13.092;2023-03-23T02:26:50;100044.56;;;17.64;40.76
27304;BME280;14791;52.392;13.092;2023-03-23T02:34:53;100052.47;;;17.58;40.87
27304;BME280;14791;52.392;13.092;2023-03-23T02:37:36;100046.38;;;17.56;40.89
27304;BME280;14791;52.392;13.092;2023-03-23T02:40:12;100050.93;;;17.55;40.93
27304;BME280;14791;52.392;13.092;2023-03-23T02:42:43;100043.81;;;17.54;40.94
27304;BME280;14791;52.392;13.092;2023-03-23T02:45:14;100046.69;;;17.53;40.92
27304;BME280;14791;52.392;13.092;2023-03-23T02:47:46;100053.27;;;17.54;40.90
27304;BME280;14791;52.392;13.092;2023-03-23T02:50:17;100045.53;;;17.55;40.89
27304;BME280;14791;52.392;13.092;2023-03-23T02:52:48;100047.21;;;17.56;40.90
27304;BME280;14791;52.392;13.092;2023-03-23T02:55:19;100048.23;;;17.59;40.87
27304;BME280;14791;52.392;13.092;2023-03-23T02:57:53;100039.99;;;17.61;40.84
27304;BME280;14791;52.392;13.092;2023-03-23T03:00:22;100038.32;;;17.64;40.80
27304;BME280;14791;52.392;13.092;2023-03-23T03:02:56;100046.61;;;17.67;40.79
27304;BME280;14791;52.392;13.092;2023-03-23T03:11:10;100023.87;;;17.73;40.67
27304;BME280;14791;52.392;13.092;2023-03-23T03:13:44;100026.39;;;17.71;40.67
27304;BME280;14791;52.392;13.092;2023-03-23T03:16:38;100022.89;;;17.74;40.65
27304;BME280;14791;52.392;13.092;2023-03-23T03:19:15;100026.43;;;17.75;40.63
27304;BME280;14791;52.392;13.092;2023-03-23T03:21:46;100031.47;;;17.74;40.68
27304;BME280;14791;52.392;13.092;2023-03-23T03:24:19;100028.80;;;17.78;40.64
27304;BME280;14791;52.392;13.092;2023-03-23T03:26:52;100036.14;;;17.81;40.61
27304;BME280;14791;52.392;13.092;2023-03-23T03:29:34;100028.22;;;17.84;40.54
27304;BME280;14791;52.392;13.092;2023-03-23T03:31:59;100033.98;;;17.89;40.46
27304;BME280;14791;52.392;13.092;2023-03-23T03:34:33;100027.75;;;17.93;40.47
27304;BME280;14791;52.392;13.092;2023-03-23T03:37:04;100027.93;;;17.95;40.62
27304;BME280;14791;52.392;13.092;2023-03-23T03:39:37;100024.06;;;17.98;40.72
27304;BME280;14791;52.392;13.092;2023-03-23T03:42:06;100017.48;;;18.00;40.73
27304;BME280;14791;52.392;13.092;2023-03-23T03:44:35;100013.11;;;17.99;40.79
27304;BME280;14791;52.392;13.092;2023-03-23T03:47:05;100007.38;;;17.98;40.92
27304;BME280;14791;52.392;13.092;2023-03-23T03:49:34;100010.07;;;17.98;41.17
27304;BME280;14791;52.392;13.092;2023-03-23T03:52:03;100020.37;;;17.99;41.11
27304;BME280;14791;52.392;13.092;2023-03-23T03:54:36;100017.16;;;17.99;41.15
27304;BME280;14791;52.392;13.092;2023-03-23T03:57:05;100015.47;;;17.98;41.32
27304;BME280;14791;52.392;13.092;2023-03-23T03:59:52;100004.48;;;18.00;41.41
27304;BME280;14791;52.392;13.092;2023-03-23T04:02:23;100010.88;;;17.95;41.40
27304;BME280;14791;52.392;13.092;2023-03-23T04:04:52;100014.75;;;17.92;41.51
27304;BME280;14791;52.392;13.092;2023-03-23T04:07:22;100005.30;;;17.92;41.63
27304;BME280;14791;52.392;13.092;2023-03-23T04:09:52;100010.19;;;17.93;41.59
27304;BME280;14791;52.392;13.092;2023-03-23T04:12:22;100002.59;;;17.92;41.70
27304;BME280;14791;52.392;13.092;2023-03-23T04:14:59;100004.97;;;17.95;41.79
27304;BME280;14791;52.392;13.092;2023-03-23T04:17:33;100012.74;;;17.94;41.86
27304;BME280;14791;52.392;13.092;2023-03-23T04:20:05;100016.28;;;17.95;41.71
27304;BME280;14791;52.392;13.092;2023-03-23T04:22:39;100013.44;;;17.96;41.75
27304;BME280;14791;52.392;13.092;2023-03-23T04:25:11;100016.28;;;17.95;41.82
27304;BME280;14791;52.392;13.092;2023-03-23T04:27:41;100001.94;;;17.94;41.86
27304;BME280;14791;52.392;13.092;2023-03-23T04:30:14;100004.27;;;17.93;41.82
27304;BME280;14791;52.392;13.092;2023-03-23T04:32:51;100013.40;;;17.92;41.91
27304;BME280;14791;52.392;13.092;2023-03-23T04:35:24;100008.98;;;17.87;42.02
27304;BME280;14791;52.392;13.092;2023-03-23T04:37:56;100021.80;;;17.85;42.07
27304;BME280;14791;52.392;13.092;2023-03-23T04:40:26;100020.05;;;17.80;42.13
27304;BME280;14791;52.392;13.092;2023-03-23T04:42:56;100032.16;;;17.76;42.04
27304;BME280;14791;52.392;13.092;2023-03-23T04:45:28;100029.61;;;17.70;42.09
27304;BME280;14791;52.392;13.092;2023-03-23T04:47:59;100033.94;;;17.63;42.20
27304;BME280;14791;52.392;13.092;2023-03-23T04:50:33;100037.95;;;17.59;42.38
27304;BME280;14791;52.392;13.092;2023-03-23T04:53:04;100040.13;;;17.55;42.41
27304;BME280;14791;52.392;13.092;2023-03-23T04:55:35;100033.34;;;17.51;42.68
27304;BME280;14791;52.392;13.092;2023-03-23T04:58:07;100035.48;;;17.48;42.95
27304;BME280;14791;52.392;13.092;2023-03-23T05:00:41;100042.37;;;17.42;43.30
27304;BME280;14791;52.392;13.092;2023-03-23T05:03:12;100038.91;;;17.32;43.60
27304;BME280;14791;52.392;13.092;2023-03-23T05:05:43;100024.30;;;17.20;43.75
27304;BME280;14791;52.392;13.092;2023-03-23T05:08:15;100024.33;;;17.07;43.97
27304;BME280;14791;52.392;13.092;2023-03-23T05:10:53;100034.49;;;16.95;44.06
27304;BME280;14791;52.392;13.092;2023-03-23T05:13:24;100035.72;;;16.83;44.35
27304;BME280;14791;52.392;13.092;2023-03-23T05:15:55;100038.25;;;16.70;44.63
27304;BME280;14791;52.392;13.092;2023-03-23T05:18:24;100035.10;;;16.61;44.86
27304;BME280;14791;52.392;13.092;2023-03-23T05:20:53;100034.01;;;16.54;45.04
27304;BME280;14791;52.392;13.092;2023-03-23T05:23:23;100037.83;;;16.47;45.30
27304;BME280;14791;52.392;13.092;2023-03-23T05:25:55;100047.70;;;16.43;45.45
27304;BME280;14791;52.392;13.092;2023-03-23T05:28:27;100052.66;;;16.37;45.60
27304;BME280;14791;52.392;13.092;2023-03-23T05:30:59;100047.89;;;16.31;45.84
27304;BME280;14791;52.392;13.092;2023-03-23T05:33:30;100042.09;;;16.26;46.16
27304;BME280;14791;52.392;13.092;2023-03-23T05:36:01;100045.37;;;16.20;46.52
27304;BME280;14791;52.392;13.092;2023-03-23T05:38:33;100048.67;;;16.14;46.54
27304;BME280;14791;52.392;13.092;2023-03-23T05:41:04;100059.11;;;16.03;47.01
27304;BME280;14791;52.392;13.092;2023-03-23T05:43:42;100053.25;;;15.94;47.52
27304;BME280;14791;52.392;13.092;2023-03-23T05:46:15;100059.50;;;15.85;48.30
27304;BME280;14791;52.392;13.092;2023-03-23T05:48:45;100062.38;;;15.73;48.82
27304;BME280;14791;52.392;13.092;2023-03-23T05:51:16;100058.87;;;15.67;49.43
27304;BME280;14791;52.392;13.092;2023-03-23T05:53:46;100064.64;;;15.59;49.93
27304;BME280;14791;52.392;13.092;2023-03-23T05:56:16;100072.92;;;15.51;50.75
27304;BME280;14791;52.392;13.092;2023-03-23T05:58:47;100067.39;;;15.43;51.57
27304;BME280;14791;52.392;13.092;2023-03-23T06:01:16;100070.80;;;15.36;52.11
27304;BME280;14791;52.392;13.092;2023-03-23T06:03:45;100060.11;;;15.30;52.70
27304;BME280;14791;52.392;13.092;2023-03-23T06:06:18;100069.45;;;15.26;53.05
27304;BME280;14791;52.392;13.092;2023-03-23T06:08:49;100075.75;;;15.21;53.34
27304;BME280;14791;52.392;13.092;2023-03-23T06:11:20;100076.67;;;15.16;53.75
27304;BME280;14791;52.392;13.092;2023-03-23T06:13:50;100082.31;;;15.13;54.16
27304;BME280;14791;52.392;13.092;2023-03-23T06:16:20;100081.25;;;15.09;54.43
27304;BME280;14791;52.392;13.092;2023-03-23T06:18:57;100077.51;;;15.06;54.74
27304;BME280;14791;52.392;13.092;2023-03-23T06:21:29;100069.69;;;15.03;55.09
27304;BME280;14791;52.392;13.092;2023-03-23T06:24:04;100078.77;;;15.02;55.13
27304;BME280;14791;52.392;13.092;2023-03-23T06:26:37;100073.05;;;15.01;55.29
27304;BME280;14791;52.392;13.092;2023-03-23T06:29:08;100078.05;;;15.00;55.45
27304;BME280;14791;52.392;13.092;2023-03-23T06:31:44;100078.05;;;15.00;55.60
27304;BME280;14791;52.392;13.092;2023-03-23T06:34:14;100083.42;;;15.00;55.77
27304;BME280;14791;52.392;13.092;2023-03-23T06:36:57;100091.50;;;15.00;55.87
27304;BME280;14791;52.392;13.092;2023-03-23T06:39:33;100081.23;;;15.00;56.04
27304;BME280;14791;52.392;13.092;2023-03-23T06:42:08;100084.43;;;14.99;56.19
27304;BME280;14791;52.392;13.092;2023-03-23T06:44:36;100084.98;;;15.03;56.26
27304;BME280;14791;52.392;13.092;2023-03-23T06:47:05;100084.70;;;15.06;56.31
27304;BME280;14791;52.392;13.092;2023-03-23T06:49:36;100081.37;;;15.08;56.36
27304;BME280;14791;52.392;13.092;2023-03-23T06:52:07;100077.94;;;15.12;56.38
27304;BME280;14791;52.392;13.092;2023-03-23T06:54:36;100082.69;;;15.14;56.37
27304;BME280;14791;52.392;13.092;2023-03-23T06:57:08;100087.90;;;15.15;56.42
27304;BME280;14791;52.392;13.092;2023-03-23T06:59:37;100093.16;;;15.17;56.40
27304;BME280;14791;52.392;13.092;2023-03-23T07:02:08;100099.25;;;15.19;56.47
27304;BME280;14791;52.392;13.092;2023-03-23T07:04:38;100086.85;;;15.22;56.57
27304;BME280;14791;52.392;13.092;2023-03-23T07:07:10;100087.23;;;15.23;56.53
27304;BME280;14791;52.392;13.092;2023-03-23T07:09:43;100082.06;;;15.25;56.56
27304;BME280;14791;52.392;13.092;2023-03-23T07:12:12;100084.45;;;15.28;56.55
27304;BME280;14791;52.392;13.092;2023-03-23T07:14:46;100064.49;;;15.31;56.49
27304;BME280;14791;52.392;13.092;2023-03-23T07:17:16;100067.05;;;15.33;56.53
27304;BME280;14791;52.392;13.092;2023-03-23T07:20:02;100064.20;;;15.34;56.49
27304;BME280;14791;52.392;13.092;2023-03-23T07:22:31;100067.89;;;15.33;56.46
27304;BME280;14791;52.392;13.092;2023-03-23T07:25:02;100073.48;;;15.36;56.40
27304;BME280;14791;52.392;13.092;2023-03-23T07:27:33;100088.84;;;15.39;56.37
27304;BME280;14791;52.392;13.092;2023-03-23T07:30:03;100093.38;;;15.39;56.56
27304;BME280;14791;52.392;13.092;2023-03-23T07:32:32;100089.21;;;15.40;56.69
27304;BME280;14791;52.392;13.092;2023-03-23T07:35:02;100065.07;;;15.44;56.74
27304;BME280;14791;52.392;13.092;2023-03-23T07:37:33;100041.90;;;15.47;56.76
27304;BME280;14791;52.392;13.092;2023-03-23T07:40:05;100044.67;;;15.51;56.68
27304;BME280;14791;52.392;13.092;2023-03-23T07:42:39;100040.67;;;15.56;56.84
27304;BME280;14791;52.392;13.092;2023-03-23T07:45:11;100030.48;;;15.59;56.88
27304;BME280;14791;52.392;13.092;2023-03-23T07:47:40;100010.20;;;15.65;57.07
27304;BME280;14791;52.392;13.092;2023-03-23T07:50:10;100001.94;;;15.72;57.08
27304;BME280;14791;52.392;13.092;2023-03-23T07:52:41;100034.86;;;15.80;56.70
27304;BME280;14791;52.392;13.092;2023-03-23T07:55:12;100073.12;;;15.83;56.40
27304;BME280;14791;52.392;13.092;2023-03-23T07:57:45;100073.17;;;15.87;56.18
27304;BME280;14791;52.392;13.092;2023-03-23T08:00:17;100062.39;;;15.87;56.05
27304;BME280;14791;52.392;13.092;2023-03-23T08:02:56;100067.14;;;15.89;56.03
27304;BME280;14791;52.392;13.092;2023-03-23T08:05:39;100065.80;;;15.89;55.98
27304;BME280;14791;52.392;13.092;2023-03-23T08:08:16;100073.54;;;15.88;55.99
27304;BME280;14791;52.392;13.092;2023-03-23T08:11:04;100078.29;;;15.90;55.99
27304;BME280;14791;52.392;13.092;2023-03-23T08:13:44;100082.83;;;15.90;55.91
27304;BME280;14791;52.392;13.092;2023-03-23T08:16:15;100079.77;;;15.89;55.85
27304;BME280;14791;52.392;13.092;2023-03-23T08:18:58;100081.19;;;15.93;55.78
27304;BME280;14791;52.392;13.092;2023-03-23T08:21:29;100090.11;;;15.93;55.78
27304;BME280;14791;52.392;13.092;2023-03-23T08:23:59;100098.27;;;15.98;55.68
27304;BME280;14791;52.392;13.092;2023-03-23T08:26:30;100102.50;;;16.00;55.58
27304;BME280;14791;52.392;13.092;2023-03-23T08:29:01;100095.97;;;16.03;55.50
27304;BME280;14791;52.392;13.092;2023-03-23T08:31:39;100093.99;;;16.05;55.53
27304;BME280;14791;52.392;13.092;2023-03-23T08:34:13;100090.49;;;16.08;55.41
27304;BME280;14791;52.392;13.092;2023-03-23T08:36:54;100078.58;;;16.11;55.39
27304;BME280;14791;52.392;13.092;2023-03-23T08:39:31;100056.18;;;16.10;55.54
27304;BME280;14791;52.392;13.092;2023-03-23T08:42:11;100066.66;;;16.13;55.68
27304;BME280;14791;52.392;13.092;2023-03-23T08:44:59;100100.27;;;16.19;55.75
27304;BME280;14791;52.392;13.092;2023-03-23T08:47:39;100090.02;;;16.23;55.70
27304;BME280;14791;52.392;13.092;2023-03-23T08:50:15;100092.66;;;16.28;55.63
27304;BME280;14791;52.392;13.092;2023-03-23T08:53:02;100095.11;;;16.35;55.64
27304;BME280;14791;52.392;13.092;2023-03-23T08:55:51;100092.45;;;16.40;55.56
27304;BME280;14791;52.392;13.092;2023-03-23T08:58:25;100089.52;;;16.47;55.33
27304;BME280;14791;52.392;13.092;2023-03-23T09:01:10;100092.13;;;16.52;55.33
27304;BME280;14791;52.392;13.092;2023-03-23T09:03:47;100108.84;;;16.56;55.35
27304;BME280;14791;52.392;13.092;2023-03-23T09:06:34;100111.94;;;16.61;55.20
27304;BME280;14791;52.392;13.092;2023-03-23T09:09:04;100111.66;;;16.64;55.08
27304;BME280;14791;52.392;13.092;2023-03-23T09:11:35;100123.55;;;16.71;54.99
27304;BME280;14791;52.392;13.092;2023-03-23T09:14:06;100114.84;;;16.77;54.94
27304;BME280;14791;52.392;13.092;2023-03-23T09:16:35;100106.20;;;16.84;54.95
27304;BME280;14791;52.392;13.092;2023-03-23T09:19:04;100095.80;;;16.89;54.89
27304;BME280;14791;52.392;13.092;2023-03-23T09:21:33;100090.66;;;16.95;54.77
27304;BME280;14791;52.392;13.092;2023-03-23T09:24:02;100099.66;;;17.00;54.66
27304;BME280;14791;52.392;13.092;2023-03-23T09:26:32;100084.55;;;17.07;54.60
27304;BME280;14791;52.392;13.092;2023-03-23T09:29:01;100095.73;;;17.12;54.51
27304;BME280;14791;52.392;13.092;2023-03-23T09:31:30;100089.71;;;17.18;54.46
27304;BME280;14791;52.392;13.092;2023-03-23T09:33:59;100094.51;;;17.25;54.38
27304;BME280;14791;52.392;13.092;2023-03-23T09:36:30;100093.88;;;17.31;54.29
27304;BME280;14791;52.392;13.092;2023-03-23T09:38:59;100089.23;;;17.37;54.20
27304;BME280;14791;52.392;13.092;2023-03-23T09:47:18;100099.67;;;17.54;54.16
27304;BME280;14791;52.392;13.092;2023-03-23T09:49:59;100110.20;;;17.61;54.04
27304;BME280;14791;52.392;13.092;2023-03-23T09:52:28;100111.27;;;17.68;53.85
27304;BME280;14791;52.392;13.092;2023-03-23T09:54:55;100106.80;;;17.77;53.71
27304;BME280;14791;52.392;13.092;2023-03-23T09:57:37;100109.59;;;17.85;53.56
27304;BME280;14791;52.392;13.092;2023-03-23T10:00:19;100117.08;;;17.95;53.42
27304;BME280;14791;52.392;13.092;2023-03-23T10:05:35;100120.23;;;18.09;52.93
27304;BME280;14791;52.392;13.092;2023-03-23T10:08:22;100122.98;;;18.13;52.92
27304;BME280;14791;52.392;13.092;2023-03-23T10:11:11;100107.46;;;18.19;52.64
27304;BME280;14791;52.392;13.092;2023-03-23T10:13:57;100113.41;;;18.22;52.45
27304;BME280;14791;52.392;13.092;2023-03-23T10:16:36;100108.52;;;18.26;52.28
27304;BME280;14791;52.392;13.092;2023-03-23T10:21:56;100100.47;;;18.34;52.19
27304;BME280;14791;52.392;13.092;2023-03-23T10:24:31;100104.89;;;18.39;52.15
27304;BME280;14791;52.392;13.092;2023-03-23T10:27:05;100105.44;;;18.47;52.13
27304;BME280;14791;52.392;13.092;2023-03-23T10:29:35;100091.94;;;18.55;52.08
27304;BME280;14791;52.392;13.092;2023-03-23T10:32:36;100098.58;;;18.65;51.91
27304;BME280;14791;52.392;13.092;2023-03-23T10:34:57;100085.11;;;18.73;51.61
27304;BME280;14791;52.392;13.092;2023-03-23T10:37:35;100103.40;;;18.79;51.49
27304;BME280;14791;52.392;13.092;2023-03-23T10:40:06;100089.08;;;18.87;51.14
27304;BME280;14791;52.392;13.092;2023-03-23T10:42:38;100090.94;;;18.90;51.01
27304;BME280;14791;52.392;13.092;2023-03-23T10:45:22;100091.98;;;18.98;50.87
27304;BME280;14791;52.392;13.092;2023-03-23T10:48:13;100090.12;;;19.02;50.63
27304;BME280;14791;52.392;13.092;2023-03-23T10:50:39;100078.97;;;19.05;50.48
27304;BME280;14791;52.392;13.092;2023-03-23T10:53:16;100095.38;;;19.08;50.16
27304;BME280;14791;52.392;13.092;2023-03-23T10:55:43;100104.19;;;19.10;49.98
27304;BME280;14791;52.392;13.092;2023-03-23T10:58:26;100092.69;;;19.12;49.91
27304;BME280;14791;52.392;13.092;2023-03-23T11:00:57;100096.41;;;19.15;49.88
27304;BME280;14791;52.392;13.092;2023-03-23T11:06:18;100093.05;;;19.21;49.52
27304;BME280;14791;52.392;13.092;2023-03-23T11:11:29;100094.25;;;19.23;49.27
27304;BME280;14791;52.392;13.092;2023-03-23T11:14:01;100103.22;;;19.23;49.37
27304;BME280;14791;52.392;13.092;2023-03-23T11:16:33;100100.68;;;19.26;49.10
27304;BME280;14791;52.392;13.092;2023-03-23T11:19:14;100104.91;;;19.28;49.05
27304;BME280;14791;52.392;13.092;2023-03-23T11:21:49;100103.22;;;19.31;49.07
27304;BME280;14791;52.392;13.092;2023-03-23T11:24:31;100109.64;;;19.34;49.05
27304;BME280;14791;52.392;13.092;2023-03-23T11:26:56;100110.02;;;19.40;49.09
27304;BME280;14791;52.392;13.092;2023-03-23T11:29:27;100113.06;;;19.45;49.00
27304;BME280;14791;52.392;13.092;2023-03-23T11:32:04;100120.86;;;19.52;48.82
27304;BME280;14791;52.392;13.092;2023-03-23T11:34:47;100125.27;;;19.57;48.61
27304;BME280;14791;52.392;13.092;2023-03-23T11:39:54;100116.80;;;19.64;48.36
27304;BME280;14791;52.392;13.092;2023-03-23T11:42:22;100109.69;;;19.67;48.32
27304;BME280;14791;52.392;13.092;2023-03-23T11:44:53;100110.05;;;19.72;48.11
27304;BME280;14791;52.392;13.092;2023-03-23T11:52:48;100124.64;;;19.88;47.78
27304;BME280;14791;52.392;13.092;2023-03-23T11:55:30;100122.26;;;19.93;47.69
27304;BME280;14791;52.392;13.092;2023-03-23T11:57:59;100123.43;;;19.98;47.64
27304;BME280;14791;52.392;13.092;2023-03-23T12:00:27;100122.41;;;20.04;47.29
27304;BME280;14791;52.392;13.092;2023-03-23T12:11:15;100138.84;;;20.18;46.70
27304;BME280;14791;52.392;13.092;2023-03-23T12:19:30;100123.75;;;20.28;46.63
27304;BME280;14791;52.392;13.092;2023-03-23T12:24:45;100112.03;;;20.36;46.56
27304;BME280;14791;52.392;13.092;2023-03-23T12:33:18;100117.06;;;20.51;45.93
27304;BME280;14791;52.392;13.092;2023-03-23T12:38:24;100093.69;;;20.50;46.04
27304;BME280;14791;52.392;13.092;2023-03-23T12:41:23;100100.81;;;20.55;45.96
27304;BME280;14791;52.392;13.092;2023-03-23T12:46:28;100083.80;;;20.70;45.39
27304;BME280;14791;52.392;13.092;2023-03-23T12:52:00;100059.00;;;20.81;45.22
27304;BME280;14791;52.392;13.092;2023-03-23T12:54:55;100067.45;;;20.86;45.04
27304;BME280;14791;52.392;13.092;2023-03-23T12:58:05;100090.47;;;20.94;44.78
27304;BME280;14791;52.392;13.092;2023-03-23T13:03:28;100098.46;;;21.19;44.86
27304;BME280;14791;52.392;13.092;2023-03-23T13:06:09;100097.20;;;21.34;44.73
27304;BME280;14791;52.392;13.092;2023-03-23T13:08:39;100100.38;;;21.45;44.34
27304;BME280;14791;52.392;13.092;2023-03-23T13:11:11;100097.22;;;21.57;43.90
27304;BME280;14791;52.392;13.092;2023-03-23T13:13:53;100097.84;;;21.67;43.65
27304;BME280;14791;52.392;13.092;2023-03-23T13:22:01;100093.69;;;22.47;43.25
27304;BME280;14791;52.392;13.092;2023-03-23T13:24:31;100094.50;;;22.92;42.85
27304;BME280;14791;52.392;13.092;2023-03-23T13:27:01;100089.08;;;23.28;42.36
27304;BME280;14791;52.392;13.092;2023-03-23T13:29:30;100088.77;;;23.60;41.78
27304;BME280;14791;52.392;13.092;2023-03-23T13:32:17;100081.98;;;23.98;41.71
27304;BME280;14791;52.392;13.092;2023-03-23T13:34:48;100076.09;;;24.40;41.28
27304;BME280;14791;52.392;13.092;2023-03-23T13:37:25;100081.39;;;24.83;40.64
27304;BME280;14791;52.392;13.092;2023-03-23T13:39:57;100083.32;;;25.20;39.75
27304;BME280;14791;52.392;13.092;2023-03-23T13:42:28;100056.16;;;25.43;38.70
27304;BME280;14791;52.392;13.092;2023-03-23T13:45:20;100062.47;;;25.63;38.04
27304;BME280;14791;52.392;13.092;2023-03-23T13:47:49;100068.59;;;25.79;37.76
27304;BME280;14791;52.392;13.092;2023-03-23T13:52:58;100057.84;;;25.64;36.75
27304;BME280;14791;52.392;13.092;2023-03-23T13:55:47;100061.84;;;25.48;36.72
27304;BME280;14791;52.392;13.092;2023-03-23T13:58:20;100068.84;;;25.27;36.79
27304;BME280;14791;52.392;13.092;2023-03-23T14:01:00;100069.88;;;25.01;36.91
27304;BME280;14791;52.392;13.092;2023-03-23T14:03:33;100066.52;;;24.75;36.94
27304;BME280;14791;52.392;13.092;2023-03-23T14:06:05;100077.70;;;24.46;37.07
27304;BME280;14791;52.392;13.092;2023-03-23T14:08:38;100077.08;;;24.15;37.18
27304;BME280;14791;52.392;13.092;2023-03-23T14:11:25;100073.19;;;23.86;37.26
27304;BME280;14791;52.392;13.092;2023-03-23T14:16:40;100066.50;;;23.24;37.86
27304;BME280;14791;52.392;13.092;2023-03-23T14:19:29;100068.55;;;22.96;38.22
27304;BME280;14791;52.392;13.092;2023-03-23T14:22:01;100070.39;;;22.74;38.51
27304;BME280;14791;52.392;13.092;2023-03-23T14:24:39;100066.09;;;22.50;38.88
27304;BME280;14791;52.392;13.092;2023-03-23T14:27:16;100079.25;;;22.32;39.07
27304;BME280;14791;52.392;13.092;2023-03-23T14:29:46;100081.76;;;22.14;39.54
27304;BME280;14791;52.392;13.092;2023-03-23T14:32:17;100081.98;;;21.94;39.77
27304;BME280;14791;52.392;13.092;2023-03-23T14:34:48;100076.83;;;21.80;40.35
27304;BME280;14791;52.392;13.092;2023-03-23T14:37:17;100075.09;;;21.64;40.75